createdAt,value
2023-05-05T00:01:35.827Z,2.58
2023-05-05T00:04:59.873Z,2.67
2023-05-05T00:08:06.288Z,2.50
2023-05-05T00:11:19.311Z,2.60
2023-05-05T00:14:31.005Z,2.60
2023-05-05T00:17:49.314Z,2.80
2023-05-05T00:20:55.105Z,2.80
2023-05-05T00:23:59.690Z,2.80
2023-05-05T00:27:04.321Z,2.70
2023-05-05T00:30:18.457Z,2.60
2023-05-05T00:33:32.020Z,2.30
2023-05-05T00:36:46.872Z,2.92
2023-05-05T00:39:57.781Z,2.67
2023-05-05T00:43:14.316Z,2.80
2023-05-05T00:46:41.200Z,2.60
2023-05-05T00:49:52.069Z,2.75
2023-05-05T00:53:00.760Z,2.67
2023-05-05T00:56:09.100Z,2.58
2023-05-05T00:59:26.020Z,2.70
2023-05-05T01:02:32.692Z,3.00
2023-05-05T01:06:24.530Z,2.97
2023-05-05T01:10:18.103Z,3.10
2023-05-05T01:13:34.520Z,2.67
2023-05-05T01:16:46.025Z,2.30
2023-05-05T01:20:26.564Z,2.90
2023-05-05T01:24:13.737Z,2.53
2023-05-05T01:27:36.105Z,2.60
2023-05-05T01:31:03.946Z,2.53
2023-05-05T01:34:27.168Z,3.07
2023-05-05T01:37:53.106Z,2.77
2023-05-05T01:41:24.712Z,2.87
2023-05-05T01:44:41.158Z,2.90
2023-05-05T01:48:10.567Z,3.08
2023-05-05T01:51:27.606Z,2.43
2023-05-05T01:54:35.200Z,2.50
2023-05-05T01:57:45.564Z,2.70
2023-05-05T02:01:00.633Z,3.10
2023-05-05T02:04:13.103Z,2.80
2023-05-05T02:07:37.147Z,2.97
2023-05-05T02:10:50.740Z,2.60
2023-05-05T02:13:54.659Z,2.83
2023-05-05T02:17:08.948Z,2.80
2023-05-05T02:20:16.825Z,2.87
2023-05-05T02:23:30.275Z,2.40
2023-05-05T02:26:43.885Z,2.40
2023-05-05T02:29:59.110Z,2.70
2023-05-05T02:33:11.370Z,2.60
2023-05-05T02:36:32.804Z,2.60
2023-05-05T02:39:50.075Z,2.83
2023-05-05T02:42:57.509Z,3.30
2023-05-05T02:46:23.146Z,3.28
2023-05-05T02:49:30.969Z,2.80
2023-05-05T02:52:47.397Z,3.25
2023-05-05T02:56:08.378Z,3.10
2023-05-05T02:59:16.702Z,2.97
2023-05-05T03:02:29.808Z,3.40
2023-05-05T03:05:45.941Z,3.10
2023-05-05T03:09:13.224Z,3.12
2023-05-05T03:12:25.810Z,2.87
2023-05-05T03:19:19.402Z,2.78
2023-05-05T03:22:31.938Z,2.70
2023-05-05T03:25:45.747Z,3.25
2023-05-05T03:28:54.920Z,3.20
2023-05-05T03:32:12.443Z,2.77
2023-05-05T03:35:33.912Z,3.08
2023-05-05T03:38:46.377Z,3.20
2023-05-05T03:42:07.892Z,3.15
2023-05-05T03:45:35.041Z,3.93
2023-05-05T03:49:07.407Z,3.27
2023-05-05T03:52:15.144Z,3.60
2023-05-05T03:55:30.317Z,3.28
2023-05-05T03:58:34.549Z,2.67
2023-05-05T04:01:48.212Z,4.00
2023-05-05T04:04:59.356Z,3.27
2023-05-05T04:08:12.889Z,3.72
2023-05-05T04:11:24.926Z,3.58
2023-05-05T04:14:39.374Z,3.90
2023-05-05T04:17:54.514Z,3.70
2023-05-05T04:21:08.409Z,3.67
2023-05-05T04:24:20.666Z,3.60
2023-05-05T04:27:58.958Z,3.53
2023-05-05T04:31:12.894Z,3.45
2023-05-05T04:34:27.619Z,3.67
2023-05-05T04:37:33.988Z,3.53
2023-05-05T04:40:45.377Z,3.83
2023-05-05T04:44:00.831Z,3.25
2023-05-05T04:47:15.318Z,3.53
2023-05-05T04:50:29.054Z,3.83
2023-05-05T04:53:41.858Z,3.80
2023-05-05T04:56:51.327Z,3.42
2023-05-05T04:59:59.611Z,3.70
2023-05-05T05:03:20.047Z,4.05
2023-05-05T05:06:24.747Z,3.73
2023-05-05T05:09:33.616Z,3.97
2023-05-05T05:12:44.957Z,3.83
2023-05-05T05:15:53.800Z,4.07
2023-05-05T05:19:05.264Z,4.75
2023-05-05T05:22:14.939Z,4.70
2023-05-05T05:25:23.758Z,4.20
2023-05-05T05:28:28.858Z,4.07
2023-05-05T05:31:34.536Z,4.45
2023-05-05T05:34:40.388Z,3.97
2023-05-05T05:37:55.567Z,4.00
2023-05-05T05:41:07.818Z,4.83
2023-05-05T05:44:13.467Z,4.20
2023-05-05T05:47:30.551Z,4.35
2023-05-05T05:50:41.826Z,4.35
2023-05-05T05:53:48.007Z,4.73
2023-05-05T05:57:02.612Z,4.97
2023-05-05T06:00:07.697Z,3.85
2023-05-05T06:03:17.282Z,4.05
2023-05-05T06:06:39.514Z,3.25
2023-05-05T06:09:52.464Z,3.50
2023-05-05T06:13:10.662Z,3.53
2023-05-05T06:16:21.703Z,3.55
2023-05-05T06:19:31.717Z,3.22
2023-05-05T06:22:53.039Z,3.65
2023-05-05T06:26:13.241Z,4.12
2023-05-05T06:29:25.561Z,4.00
2023-05-05T06:32:49.191Z,3.92
2023-05-05T06:36:10.133Z,4.32
2023-05-05T06:39:38.294Z,4.53
2023-05-05T06:42:46.479Z,4.97
2023-05-05T06:46:04.724Z,5.60
2023-05-05T06:49:19.203Z,5.22
2023-05-05T06:53:05.831Z,4.78
2023-05-05T06:56:27.801Z,5.70
2023-05-05T06:59:35.406Z,5.25
2023-05-05T07:02:48.858Z,5.03
2023-05-05T07:05:58.965Z,4.95
2023-05-05T07:09:17.037Z,4.15
2023-05-05T07:12:28.384Z,3.85
2023-05-05T07:15:51.103Z,4.28
2023-05-05T07:19:02.223Z,3.97
2023-05-05T07:22:29.590Z,3.90
2023-05-05T07:25:42.047Z,4.22
2023-05-05T07:28:57.593Z,3.30
2023-05-05T07:32:16.044Z,3.60
2023-05-05T07:35:32.692Z,3.80
2023-05-05T07:38:54.888Z,3.60
2023-05-05T07:42:12.927Z,3.45
2023-05-05T07:45:28.882Z,3.50
2023-05-05T07:48:50.155Z,3.70
2023-05-05T07:52:01.718Z,3.27
2023-05-05T07:55:13.026Z,3.72
2023-05-05T07:58:45.395Z,3.62
2023-05-05T08:02:01.528Z,3.08
2023-05-05T08:05:26.203Z,3.22
2023-05-05T08:08:50.305Z,3.50
2023-05-05T08:12:54.283Z,3.33
2023-05-05T08:16:06.390Z,3.40
2023-05-05T08:22:59.011Z,3.15
2023-05-05T08:26:23.078Z,3.40
2023-05-05T08:29:47.429Z,4.28
2023-05-05T08:32:58.511Z,2.62
2023-05-05T08:36:09.197Z,2.60
2023-05-05T08:40:08.091Z,2.75
2023-05-05T08:43:26.758Z,3.30
2023-05-05T08:47:00.453Z,3.33
2023-05-05T08:50:20.807Z,3.10
2023-05-05T08:53:55.124Z,2.92
2023-05-05T08:57:28.075Z,3.12
2023-05-05T09:00:52.519Z,2.83
2023-05-05T09:04:12.079Z,3.10
2023-05-05T09:07:18.711Z,3.05
2023-05-05T09:10:53.475Z,2.70
2023-05-05T09:14:38.482Z,2.80
2023-05-05T09:17:50.642Z,3.43
2023-05-05T09:21:39.947Z,3.10
2023-05-05T09:25:16.762Z,2.90
2023-05-05T09:28:44.843Z,3.12
2023-05-05T09:32:22.978Z,3.22
2023-05-05T09:35:29.411Z,2.83
2023-05-05T09:38:41.291Z,2.80
2023-05-05T09:41:56.174Z,2.42
2023-05-05T09:45:01.261Z,2.55
2023-05-05T09:48:15.240Z,2.33
2023-05-05T09:51:35.616Z,2.83
2023-05-05T09:54:40.830Z,2.92
2023-05-05T09:57:53.304Z,2.80
2023-05-05T10:00:57.486Z,2.17
2023-05-05T10:04:07.394Z,2.67
2023-05-05T10:07:25.695Z,2.50
2023-05-05T10:10:31.944Z,3.03
2023-05-05T10:13:42.190Z,2.50
2023-05-05T10:16:55.733Z,2.60
2023-05-05T10:20:11.470Z,2.90
2023-05-05T10:23:26.769Z,2.97
2023-05-05T10:26:37.867Z,2.45
2023-05-05T10:30:15.109Z,2.78
2023-05-05T10:33:34.099Z,2.70
2023-05-05T10:36:43.225Z,2.35
2023-05-05T10:39:49.665Z,2.70
2023-05-05T10:42:56.827Z,2.40
2023-05-05T10:46:03.432Z,3.28
2023-05-05T10:49:24.099Z,2.62
2023-05-05T10:53:02.233Z,2.58
2023-05-05T10:56:31.423Z,2.50
2023-05-05T10:59:47.844Z,2.67
2023-05-05T11:03:28.235Z,2.80
2023-05-05T11:06:39.409Z,2.80
2023-05-05T11:10:06.573Z,2.58
2023-05-05T11:13:18.615Z,2.73
2023-05-05T11:16:45.945Z,2.80
2023-05-05T11:19:48.586Z,3.10
2023-05-05T11:23:03.538Z,3.10
2023-05-05T11:26:06.083Z,2.50
2023-05-05T11:29:09.989Z,2.40
2023-05-05T11:32:25.900Z,2.50
2023-05-05T11:36:06.025Z,2.87
2023-05-05T11:39:34.219Z,2.70
2023-05-05T11:42:44.456Z,2.62
2023-05-05T11:45:46.747Z,1.97
2023-05-05T11:48:55.649Z,1.90
2023-05-05T11:52:18.267Z,2.40
2023-05-05T11:55:27.907Z,2.45
2023-05-05T11:58:32.616Z,2.78
2023-05-05T12:01:40.952Z,2.50
2023-05-05T12:04:48.571Z,2.53
2023-05-05T12:07:59.710Z,2.50
2023-05-05T12:11:11.760Z,2.10
2023-05-05T12:14:14.151Z,2.53
2023-05-05T12:17:16.946Z,2.30
2023-05-05T12:20:32.404Z,2.47
2023-05-05T12:23:39.014Z,2.30
2023-05-05T12:26:45.121Z,2.47
2023-05-05T12:29:54.779Z,2.40
2023-05-05T12:33:07.289Z,2.50
2023-05-05T12:36:14.637Z,2.55
2023-05-05T12:39:37.785Z,2.25
2023-05-05T12:42:46.412Z,2.50
2023-05-05T12:45:58.777Z,2.35
2023-05-05T12:49:34.085Z,2.57
2023-05-05T12:52:46.394Z,2.40
2023-05-05T12:55:52.499Z,2.08
2023-05-05T12:58:57.821Z,2.40
2023-05-05T13:02:03.908Z,2.15
2023-05-05T13:05:08.722Z,2.23
2023-05-05T13:08:23.169Z,2.10
2023-05-05T13:11:27.785Z,2.08
2023-05-05T13:14:31.939Z,2.12
2023-05-05T13:17:37.016Z,1.90
2023-05-05T13:20:39.701Z,2.03
2023-05-05T13:23:50.783Z,2.00
2023-05-05T13:26:56.629Z,2.00
2023-05-05T13:30:04.606Z,2.00
2023-05-05T13:33:10.233Z,2.05
2023-05-05T13:36:13.120Z,2.07
2023-05-05T13:39:17.931Z,2.40
2023-05-05T13:42:28.282Z,2.30
2023-05-05T13:45:39.429Z,1.90
2023-05-05T13:48:49.219Z,2.17
2023-05-05T13:51:52.524Z,1.90
2023-05-05T13:54:57.840Z,2.20
2023-05-05T13:58:15.439Z,2.30
2023-05-05T14:01:23.346Z,2.33
2023-05-05T14:04:28.135Z,2.33
2023-05-05T14:07:36.382Z,2.27
2023-05-05T14:10:52.035Z,2.45
2023-05-05T14:13:57.560Z,2.50
2023-05-05T14:17:00.458Z,2.25
2023-05-05T14:20:11.180Z,2.10
2023-05-05T14:23:21.560Z,2.20
2023-05-05T14:26:24.123Z,2.17
2023-05-05T14:29:26.768Z,2.15
2023-05-05T14:32:29.801Z,1.87
2023-05-05T14:35:34.698Z,2.03
2023-05-05T14:38:43.457Z,2.03
2023-05-05T14:41:48.816Z,2.20
2023-05-05T14:45:02.048Z,2.08
2023-05-05T14:48:07.362Z,2.17
2023-05-05T14:51:16.508Z,1.98
2023-05-05T14:54:28.603Z,2.27
2023-05-05T14:57:31.808Z,2.20
2023-05-05T15:00:40.302Z,2.50
2023-05-05T15:03:45.430Z,2.10
2023-05-05T15:06:53.583Z,2.15
2023-05-05T15:09:59.835Z,2.27
2023-05-05T15:13:06.156Z,2.15
2023-05-05T15:16:15.840Z,2.00
2023-05-05T15:19:25.780Z,2.12
2023-05-05T15:22:28.286Z,2.40
2023-05-05T15:25:30.963Z,1.97
2023-05-05T15:28:38.297Z,2.00
2023-05-05T15:31:45.284Z,2.12
2023-05-05T15:34:50.482Z,2.22
2023-05-05T15:38:10.071Z,2.20
2023-05-05T15:41:22.359Z,1.47
2023-05-05T15:44:26.774Z,2.00
2023-05-05T15:47:29.672Z,2.33
2023-05-05T15:50:41.785Z,2.08
2023-05-05T15:53:45.434Z,2.10
2023-05-05T15:56:51.313Z,2.27
2023-05-05T16:03:31.867Z,2.20
2023-05-05T16:06:36.813Z,2.03
2023-05-05T16:09:41.445Z,1.87
2023-05-05T16:12:52.901Z,2.10
2023-05-05T16:15:56.155Z,2.33
2023-05-05T16:19:13.271Z,2.40
2023-05-05T16:22:21.271Z,2.10
2023-05-05T16:25:23.819Z,2.15
2023-05-05T16:28:34.448Z,2.00
2023-05-05T16:31:37.143Z,1.90
2023-05-05T16:34:43.422Z,1.80
2023-05-05T16:37:46.449Z,1.80
2023-05-05T16:40:49.715Z,2.10
2023-05-05T16:43:59.288Z,2.17
2023-05-05T16:47:03.081Z,1.92
2023-05-05T16:50:08.704Z,1.90
2023-05-05T16:53:13.704Z,2.00
2023-05-05T16:56:17.892Z,1.98
2023-05-05T16:59:23.409Z,2.10
2023-05-05T17:02:31.554Z,2.05
2023-05-05T17:05:37.231Z,2.30
2023-05-05T17:08:47.658Z,2.05
2023-05-05T17:11:54.613Z,1.90
2023-05-05T17:15:05.022Z,2.40
2023-05-05T17:18:08.740Z,2.10
2023-05-05T17:21:15.573Z,2.30
2023-05-05T17:24:18.342Z,1.98
2023-05-05T17:27:25.283Z,2.10
2023-05-05T17:30:34.274Z,2.00
2023-05-05T17:33:39.763Z,2.30
2023-05-05T17:36:45.496Z,2.40
2023-05-05T17:39:51.293Z,1.95
2023-05-05T17:43:02.085Z,2.40
2023-05-05T17:46:14.232Z,2.23
2023-05-05T17:49:27.463Z,2.30
2023-05-05T17:52:35.192Z,2.25
2023-05-05T17:55:48.445Z,2.30
2023-05-05T17:58:50.886Z,2.40
2023-05-05T18:02:00.767Z,2.10
2023-05-05T18:05:17.341Z,2.22
2023-05-05T18:08:28.090Z,2.50
2023-05-05T18:11:41.764Z,2.62
2023-05-05T18:14:47.081Z,2.42
2023-05-05T18:17:52.287Z,2.77
2023-05-05T18:20:55.032Z,2.20
2023-05-05T18:24:15.888Z,2.80
2023-05-05T18:27:33.432Z,2.60
2023-05-05T18:30:38.746Z,2.45
2023-05-05T18:33:41.324Z,2.83
2023-05-05T18:36:49.626Z,2.40
2023-05-05T18:39:56.799Z,2.90
2023-05-05T18:43:01.633Z,2.78
2023-05-05T18:46:17.127Z,3.28
2023-05-05T18:49:26.770Z,2.63
2023-05-05T18:52:41.041Z,2.47
2023-05-05T18:55:45.918Z,2.47
2023-05-05T18:58:51.380Z,3.25
2023-05-05T19:01:56.871Z,3.47
2023-05-05T19:05:04.897Z,4.40
2023-05-05T19:08:11.301Z,3.40
2023-05-05T19:11:15.701Z,3.37
2023-05-05T19:14:18.485Z,3.08
2023-05-05T19:17:23.042Z,3.67
2023-05-05T19:20:35.299Z,3.40
2023-05-05T19:23:41.084Z,2.90
2023-05-05T19:26:45.272Z,3.05
2023-05-05T19:29:53.258Z,2.97
2023-05-05T19:33:03.572Z,15.87
2023-05-05T19:36:11.256Z,11.10
2023-05-05T19:39:17.767Z,10.07
2023-05-05T19:42:29.756Z,8.88
2023-05-05T19:45:36.268Z,7.65
2023-05-05T19:48:44.434Z,6.07
2023-05-05T19:51:53.763Z,5.97
2023-05-05T19:54:57.086Z,5.30
2023-05-05T19:58:00.718Z,4.28
2023-05-05T20:01:05.412Z,3.58
2023-05-05T20:04:10.542Z,3.43
2023-05-05T20:07:19.042Z,3.87
2023-05-05T20:10:34.275Z,3.65
2023-05-05T20:13:43.718Z,3.83
2023-05-05T20:16:55.222Z,3.80
2023-05-05T20:20:03.680Z,4.03
2023-05-05T20:23:11.851Z,3.80
2023-05-05T20:26:17.673Z,4.15
2023-05-05T20:29:22.303Z,4.07
2023-05-05T20:32:26.157Z,3.90
2023-05-05T20:35:40.086Z,4.10
2023-05-05T20:38:45.210Z,4.63
2023-05-05T20:41:56.881Z,4.07
2023-05-05T20:45:03.327Z,4.37
2023-05-05T20:48:15.179Z,3.78
2023-05-05T20:51:18.832Z,4.07
2023-05-05T20:54:27.284Z,3.93
2023-05-05T20:57:35.019Z,3.47
2023-05-05T21:00:46.782Z,3.78
2023-05-05T21:03:53.083Z,3.97
2023-05-05T21:07:00.191Z,3.73
2023-05-05T21:10:04.442Z,3.93
2023-05-05T21:13:10.796Z,3.75
2023-05-05T21:16:29.931Z,3.60
2023-05-05T21:19:36.488Z,4.00
2023-05-05T21:22:52.476Z,3.40
2023-05-05T21:26:02.238Z,3.43
2023-05-05T21:29:07.664Z,4.07
2023-05-05T21:32:12.742Z,3.70
2023-05-05T21:35:26.493Z,3.87
2023-05-05T21:38:37.074Z,3.77
2023-05-05T21:41:44.803Z,3.50
2023-05-05T21:44:59.199Z,3.67
2023-05-05T21:48:04.864Z,3.55
2023-05-05T21:51:19.697Z,3.80
2023-05-05T21:54:30.772Z,3.37
2023-05-05T21:57:40.736Z,3.40
2023-05-05T22:00:53.823Z,3.28
2023-05-05T22:04:01.502Z,3.17
2023-05-05T22:10:48.290Z,2.80
2023-05-05T22:14:00.160Z,2.80
2023-05-05T22:17:06.356Z,2.97
2023-05-05T22:20:21.720Z,3.00
2023-05-05T22:23:26.205Z,3.10
2023-05-05T22:26:45.880Z,2.90
2023-05-05T22:29:48.814Z,2.67
2023-05-05T22:32:59.821Z,2.60
2023-05-05T22:36:15.703Z,2.75
2023-05-05T22:39:20.016Z,2.80
2023-05-05T22:42:46.979Z,2.93
2023-05-05T22:46:10.091Z,3.47
2023-05-05T22:49:22.492Z,2.80
2023-05-05T22:52:32.765Z,2.97
2023-05-05T22:55:37.675Z,3.10
2023-05-05T22:58:48.917Z,3.00
2023-05-05T23:01:59.094Z,2.80
2023-05-05T23:05:13.041Z,2.60
2023-05-05T23:08:19.279Z,3.33
2023-05-05T23:11:25.149Z,3.25
2023-05-05T23:14:39.851Z,3.40
2023-05-05T23:17:48.114Z,3.03
2023-05-05T23:20:50.790Z,3.10
2023-05-05T23:23:58.894Z,3.10
2023-05-05T23:27:04.281Z,3.00
2023-05-05T23:30:23.431Z,3.22
2023-05-05T23:33:33.901Z,2.97
2023-05-05T23:36:42.757Z,2.90
2023-05-05T23:40:03.251Z,2.87
2023-05-05T23:43:06.834Z,3.05
2023-05-05T23:46:14.726Z,3.50
2023-05-05T23:49:21.768Z,3.40
2023-05-05T23:55:48.893Z,3.33
2023-05-05T23:58:59.599Z,3.22
